sensor_id;sensor_type;location;lat;lon;timestamp;P1;durP1;ratioP1;P2;durP2;ratioP2
6902;SDS011;20232;49.408;8.702;2024-01-07T05:02:04;12.33;;;8.73;;
6902;SDS011;20232;49.408;8.702;2024-01-07T05:04:30;11.90;;;8.40;;
6902;SDS011;20232;49.408;8.702;2024-01-07T05:06:57;11.73;;;7.90;;
6902;SDS011;20232;49.408;8.702;2024-01-07T05:09:22;10.20;;;7.50;;
6902;SDS011;20232;49.408;8.702;2024-01-07T05:11:47;10.93;;;7.73;;
6902;SDS011;20232;49.408;8.702;2024-01-07T05:14:13;11.33;;;7.43;;
6902;SDS011;20232;49.408;8.702;2024-01-07T05:16:38;10.77;;;7.60;;
6902;SDS011;20232;49.408;8.702;2024-01-07T05:19:03;10.10;;;7.47;;
6902;SDS011;20232;49.408;8.702;2024-01-07T05:21:29;11.13;;;7.33;;
6902;SDS011;20232;49.408;8.702;2024-01-07T05:23:55;11.50;;;8.23;;
6902;SDS011;20232;49.408;8.702;2024-01-07T05:26:21;15.17;;;8.53;;
6902;SDS011;20232;49.408;8.702;2024-01-07T05:28:46;12.97;;;8.03;;
6902;SDS011;20232;49.408;8.702;2024-01-07T05:31:15;10.13;;;7.27;;
6902;SDS011;20232;49.408;8.702;2024-01-07T05:33:42;11.40;;;7.80;;
6902;SDS011;20232;49.408;8.702;2024-01-07T05:36:08;11.03;;;7.47;;
6902;SDS011;20232;49.408;8.702;2024-01-07T05:38:33;10.20;;;7.57;;
6902;SDS011;20232;49.408;8.702;2024-01-07T05:40:58;11.13;;;7.77;;
6902;SDS011;20232;49.408;8.702;2024-01-07T05:43:24;11.77;;;7.77;;
6902;SDS011;20232;49.408;8.702;2024-01-07T05:45:49;12.87;;;8.03;;
6902;SDS011;20232;49.408;8.702;2024-01-07T05:48:15;13.30;;;8.33;;
6902;SDS011;20232;49.408;8.702;2024-01-07T05:50:40;11.23;;;8.20;;
6902;SDS011;20232;49.408;8.702;2024-01-07T05:53:05;10.97;;;7.43;;
6902;SDS011;20232;49.408;8.702;2024-01-07T05:55:31;10.60;;;7.80;;
6902;SDS011;20232;49.408;8.702;2024-01-07T05:57:56;10.07;;;7.43;;
6902;SDS011;20232;49.408;8.702;2024-01-07T06:00:22;12.47;;;7.53;;
6902;SDS011;20232;49.408;8.702;2024-01-07T06:02:48;9.73;;;7.30;;
6902;SDS011;20232;49.408;8.702;2024-01-07T06:05:13;10.80;;;7.77;;
6902;SDS011;20232;49.408;8.702;2024-01-07T06:07:39;10.47;;;7.37;;
6902;SDS011;20232;49.408;8.702;2024-01-07T06:10:04;11.97;;;7.30;;
6902;SDS011;20232;49.408;8.702;2024-01-07T06:12:30;10.77;;;7.37;;
6902;SDS011;20232;49.408;8.702;2024-01-07T06:14:55;10.00;;;6.90;;
6902;SDS011;20232;49.408;8.702;2024-01-07T06:17:21;10.80;;;7.17;;
6902;SDS011;20232;49.408;8.702;2024-01-07T06:19:46;11.17;;;7.27;;
6902;SDS011;20232;49.408;8.702;2024-01-07T06:22:11;11.53;;;7.37;;
6902;SDS011;20232;49.408;8.702;2024-01-07T06:24:37;10.30;;;7.37;;
6902;SDS011;20232;49.408;8.702;2024-01-07T06:27:02;9.37;;;7.17;;
6902;SDS011;20232;49.408;8.702;2024-01-07T06:29:29;11.57;;;7.23;;
6902;SDS011;20232;49.408;8.702;2024-01-07T06:31:55;10.33;;;7.60;;
6902;SDS011;20232;49.408;8.702;2024-01-07T06:34:20;12.20;;;7.47;;
6902;SDS011;20232;49.408;8.702;2024-01-07T06:36:46;10.33;;;6.67;;
6902;SDS011;20232;49.408;8.702;2024-01-07T06:39:11;11.47;;;7.87;;
6902;SDS011;20232;49.408;8.702;2024-01-07T06:41:37;14.90;;;7.83;;
6902;SDS011;20232;49.408;8.702;2024-01-07T06:44:02;12.00;;;8.30;;
6902;SDS011;20232;49.408;8.702;2024-01-07T06:46:28;14.60;;;8.40;;
6902;SDS011;20232;49.408;8.702;2024-01-07T06:48:53;13.03;;;8.50;;
6902;SDS011;20232;49.408;8.702;2024-01-07T06:51:19;13.23;;;8.63;;
6902;SDS011;20232;49.408;8.702;2024-01-07T06:53:44;14.97;;;8.73;;
6902;SDS011;20232;49.408;8.702;2024-01-07T06:56:10;14.90;;;8.63;;
6902;SDS011;20232;49.408;8.702;2024-01-07T06:58:35;12.33;;;8.33;;
6902;SDS011;20232;49.408;8.702;2024-01-07T07:01:00;12.50;;;8.00;;
6902;SDS011;20232;49.408;8.702;2024-01-07T07:03:26;14.10;;;8.00;;
6902;SDS011;20232;49.408;8.702;2024-01-07T07:05:51;13.10;;;8.17;;
6902;SDS011;20232;49.408;8.702;2024-01-07T07:08:16;14.03;;;8.67;;
6902;SDS011;20232;49.408;8.702;2024-01-07T07:10:42;11.90;;;8.47;;
6902;SDS011;20232;49.408;8.702;2024-01-07T07:13:07;11.80;;;8.17;;
6902;SDS011;20232;49.408;8.702;2024-01-07T07:15:33;14.77;;;8.40;;
6902;SDS011;20232;49.408;8.702;2024-01-07T07:17:59;12.83;;;8.30;;
6902;SDS011;20232;49.408;8.702;2024-01-07T07:20:24;14.00;;;9.30;;
6902;SDS011;20232;49.408;8.702;2024-01-07T07:22:50;13.63;;;8.60;;
6902;SDS011;20232;49.408;8.702;2024-01-07T07:25:15;11.77;;;8.33;;
6902;SDS011;20232;49.408;8.702;2024-01-07T07:27:41;12.60;;;8.90;;
6902;SDS011;20232;49.408;8.702;2024-01-07T07:30:06;14.37;;;8.87;;
6902;SDS011;20232;49.408;8.702;2024-01-07T07:32:32;15.93;;;9.17;;
6902;SDS011;20232;49.408;8.702;2024-01-07T07:34:59;16.43;;;10.47;;
6902;SDS011;20232;49.408;8.702;2024-01-07T07:37:24;16.23;;;9.80;;
6902;SDS011;20232;49.408;8.702;2024-01-07T07:39:50;15.30;;;9.53;;
6902;SDS011;20232;49.408;8.702;2024-01-07T07:42:15;15.17;;;9.67;;
6902;SDS011;20232;49.408;8.702;2024-01-07T07:44:41;14.77;;;10.17;;
6902;SDS011;20232;49.408;8.702;2024-01-07T07:47:07;15.57;;;9.50;;
6902;SDS011;20232;49.408;8.702;2024-01-07T07:49:33;16.00;;;9.30;;
6902;SDS011;20232;49.408;8.702;2024-01-07T07:51:59;14.20;;;9.20;;
6902;SDS011;20232;49.408;8.702;2024-01-07T07:54:24;13.77;;;9.10;;
6902;SDS011;20232;49.408;8.702;2024-01-07T07:56:50;15.83;;;9.90;;
6902;SDS011;20232;49.408;8.702;2024-01-07T07:59:15;17.10;;;9.93;;
6902;SDS011;20232;49.408;8.702;2024-01-07T08:01:41;13.97;;;9.80;;
6902;SDS011;20232;49.408;8.702;2024-01-07T08:04:07;13.30;;;9.53;;
6902;SDS011;20232;49.408;8.702;2024-01-07T08:06:34;18.40;;;9.83;;
6902;SDS011;20232;49.408;8.702;2024-01-07T08:08:59;18.07;;;10.57;;
6902;SDS011;20232;49.408;8.702;2024-01-07T08:11:24;15.13;;;10.00;;
6902;SDS011;20232;49.408;8.702;2024-01-07T08:13:50;16.13;;;10.47;;
6902;SDS011;20232;49.408;8.702;2024-01-07T08:16:15;16.67;;;10.33;;
6902;SDS011;20232;49.408;8.702;2024-01-07T08:18:41;15.17;;;10.00;;
6902;SDS011;20232;49.408;8.702;2024-01-07T08:21:06;17.13;;;10.67;;
6902;SDS011;20232;49.408;8.702;2024-01-07T08:23:32;17.50;;;11.27;;
6902;SDS011;20232;49.408;8.702;2024-01-07T08:25:57;17.63;;;10.47;;
6902;SDS011;20232;49.408;8.702;2024-01-07T08:28:24;17.93;;;10.63;;
6902;SDS011;20232;49.408;8.702;2024-01-07T08:30:49;17.10;;;10.73;;
6902;SDS011;20232;49.408;8.702;2024-01-07T08:33:16;14.77;;;9.57;;
6902;SDS011;20232;49.408;8.702;2024-01-07T08:35:43;13.10;;;8.77;;
6902;SDS011;20232;49.408;8.702;2024-01-07T08:38:08;15.67;;;9.07;;
6902;SDS011;20232;49.408;8.702;2024-01-07T08:40:33;10.10;;;7.33;;
6902;SDS011;20232;49.408;8.702;2024-01-07T08:42:59;6.57;;;5.73;;
6902;SDS011;20232;49.408;8.702;2024-01-07T08:45:24;7.20;;;5.93;;
6902;SDS011;20232;49.408;8.702;2024-01-07T08:47:50;6.20;;;5.50;;
6902;SDS011;20232;49.408;8.702;2024-01-07T08:50:15;7.17;;;6.00;;
6902;SDS011;20232;49.408;8.702;2024-01-07T08:52:40;7.77;;;5.63;;
6902;SDS011;20232;49.408;8.702;2024-01-07T08:55:06;8.10;;;5.80;;
6902;SDS011;20232;49.408;8.702;2024-01-07T08:57:34;6.87;;;5.30;;
6902;SDS011;20232;49.408;8.702;2024-01-07T09:00:00;5.57;;;4.87;;
6902;SDS011;20232;49.408;8.702;2024-01-07T09:02:25;7.53;;;5.83;;
6902;SDS011;20232;49.408;8.702;2024-01-07T09:04:51;7.47;;;5.50;;
6902;SDS011;20232;49.408;8.702;2024-01-07T09:07:17;7.93;;;5.30;;
6902;SDS011;20232;49.408;8.702;2024-01-07T09:09:44;6.20;;;4.70;;
6902;SDS011;20232;49.408;8.702;2024-01-07T09:12:09;7.10;;;5.20;;
6902;SDS011;20232;49.408;8.702;2024-01-07T09:14:36;5.37;;;4.30;;
6902;SDS011;20232;49.408;8.702;2024-01-07T09:17:02;6.37;;;4.40;;
6902;SDS011;20232;49.408;8.702;2024-01-07T09:19:27;6.20;;;4.30;;
6902;SDS011;20232;49.408;8.702;2024-01-07T09:21:53;5.10;;;4.27;;
6902;SDS011;20232;49.408;8.702;2024-01-07T09:24:18;5.60;;;4.43;;
6902;SDS011;20232;49.408;8.702;2024-01-07T09:26:44;5.40;;;4.23;;
6902;SDS011;20232;49.408;8.702;2024-01-07T09:29:09;4.47;;;4.00;;
6902;SDS011;20232;49.408;8.702;2024-01-07T09:31:35;5.20;;;4.23;;
6902;SDS011;20232;49.408;8.702;2024-01-07T09:34:01;3.93;;;3.13;;
6902;SDS011;20232;49.408;8.702;2024-01-07T09:36:27;3.60;;;3.30;;
6902;SDS011;20232;49.408;8.702;2024-01-07T09:38:52;3.80;;;3.40;;
6902;SDS011;20232;49.408;8.702;2024-01-07T09:41:19;3.30;;;3.00;;
6902;SDS011;20232;49.408;8.702;2024-01-07T09:43:44;3.30;;;3.00;;
6902;SDS011;20232;49.408;8.702;2024-01-07T09:46:10;3.40;;;3.10;;
6902;SDS011;20232;49.408;8.702;2024-01-07T09:48:35;4.33;;;3.53;;
6902;SDS011;20232;49.408;8.702;2024-01-07T09:51:00;3.30;;;3.00;;
6902;SDS011;20232;49.408;8.702;2024-01-07T09:53:27;3.93;;;3.63;;
6902;SDS011;20232;49.408;8.702;2024-01-07T09:56:11;4.30;;;3.70;;
6902;SDS011;20232;49.408;8.702;2024-01-07T09:58:40;3.43;;;3.13;;
6902;SDS011;20232;49.408;8.702;2024-01-07T10:01:07;3.73;;;3.43;;
6902;SDS011;20232;49.408;8.702;2024-01-07T10:03:33;4.37;;;3.00;;
6902;SDS011;20232;49.408;8.702;2024-01-07T10:05:58;3.63;;;3.33;;
6902;SDS011;20232;49.408;8.702;2024-01-07T10:08:24;3.77;;;3.37;;
6902;SDS011;20232;49.408;8.702;2024-01-07T10:10:49;3.93;;;3.50;;
6902;SDS011;20232;49.408;8.702;2024-01-07T10:13:14;3.63;;;3.33;;
6902;SDS011;20232;49.408;8.702;2024-01-07T10:15:40;3.53;;;3.10;;
6902;SDS011;20232;49.408;8.702;2024-01-07T10:18:06;3.93;;;3.57;;
6902;SDS011;20232;49.408;8.702;2024-01-07T10:20:32;3.43;;;3.13;;
6902;SDS011;20232;49.408;8.702;2024-01-07T10:23:04;3.83;;;3.50;;
6902;SDS011;20232;49.408;8.702;2024-01-07T10:25:32;4.00;;;3.50;;
6902;SDS011;20232;49.408;8.702;2024-01-07T10:28:01;5.00;;;3.40;;
6902;SDS011;20232;49.408;8.702;2024-01-07T10:30:27;14.60;;;6.63;;
6902;SDS011;20232;49.408;8.702;2024-01-07T10:32:59;8.27;;;5.30;;
6902;SDS011;20232;49.408;8.702;2024-01-07T10:35:29;5.47;;;3.67;;
6902;SDS011;20232;49.408;8.702;2024-01-07T10:37:58;10.47;;;4.87;;
6902;SDS011;20232;49.408;8.702;2024-01-07T10:40:26;4.50;;;4.07;;
6902;SDS011;20232;49.408;8.702;2024-01-07T10:42:52;9.33;;;4.60;;
6902;SDS011;20232;49.408;8.702;2024-01-07T10:45:19;3.50;;;3.20;;
6902;SDS011;20232;49.408;8.702;2024-01-07T10:47:46;6.60;;;4.47;;
6902;SDS011;20232;49.408;8.702;2024-01-07T10:50:14;7.87;;;4.80;;
6902;SDS011;20232;49.408;8.702;2024-01-07T10:52:40;3.60;;;3.30;;
6902;SDS011;20232;49.408;8.702;2024-01-07T10:55:09;3.93;;;3.53;;
6902;SDS011;20232;49.408;8.702;2024-01-07T10:57:45;4.70;;;3.90;;
6902;SDS011;20232;49.408;8.702;2024-01-07T11:00:21;5.93;;;3.90;;
6902;SDS011;20232;49.408;8.702;2024-01-07T11:09:11;4.03;;;3.60;;
6902;SDS011;20232;49.408;8.702;2024-01-07T11:11:39;4.60;;;3.60;;
6902;SDS011;20232;49.408;8.702;2024-01-07T11:14:33;3.87;;;3.57;;
6902;SDS011;20232;49.408;8.702;2024-01-07T11:16:59;4.10;;;3.67;;
6902;SDS011;20232;49.408;8.702;2024-01-07T11:19:25;3.70;;;3.40;;
6902;SDS011;20232;49.408;8.702;2024-01-07T11:21:51;4.23;;;3.83;;
6902;SDS011;20232;49.408;8.702;2024-01-07T11:27:04;4.50;;;4.10;;
6902;SDS011;20232;49.408;8.702;2024-01-07T11:29:31;3.40;;;3.20;;
6902;SDS011;20232;49.408;8.702;2024-01-07T11:31:56;4.27;;;3.87;;
6902;SDS011;20232;49.408;8.702;2024-01-07T11:34:41;3.97;;;3.67;;
6902;SDS011;20232;49.408;8.702;2024-01-07T11:37:11;4.00;;;3.60;;
6902;SDS011;20232;49.408;8.702;2024-01-07T11:39:38;4.60;;;4.20;;
6902;SDS011;20232;49.408;8.702;2024-01-07T11:42:03;4.30;;;3.90;;
6902;SDS011;20232;49.408;8.702;2024-01-07T11:44:29;4.30;;;4.00;;
6902;SDS011;20232;49.408;8.702;2024-01-07T11:46:55;4.23;;;3.83;;
6902;SDS011;20232;49.408;8.702;2024-01-07T11:49:21;4.67;;;4.23;;
6902;SDS011;20232;49.408;8.702;2024-01-07T11:51:46;4.63;;;4.20;;
6902;SDS011;20232;49.408;8.702;2024-01-07T11:54:12;5.23;;;4.40;;
6902;SDS011;20232;49.408;8.702;2024-01-07T11:56:37;6.47;;;5.50;;
6902;SDS011;20232;49.408;8.702;2024-01-07T11:59:03;5.20;;;4.70;;
6902;SDS011;20232;49.408;8.702;2024-01-07T12:01:28;5.03;;;4.53;;
6902;SDS011;20232;49.408;8.702;2024-01-07T12:03:54;5.57;;;4.97;;
6902;SDS011;20232;49.408;8.702;2024-01-07T12:06:19;6.77;;;5.10;;
6902;SDS011;20232;49.408;8.702;2024-01-07T12:08:45;5.83;;;4.80;;
6902;SDS011;20232;49.408;8.702;2024-01-07T12:11:14;6.10;;;5.50;;
6902;SDS011;20232;49.408;8.702;2024-01-07T12:13:40;6.37;;;4.47;;
6902;SDS011;20232;49.408;8.702;2024-01-07T12:16:06;4.60;;;4.20;;
6902;SDS011;20232;49.408;8.702;2024-01-07T12:18:31;6.17;;;5.47;;
6902;SDS011;20232;49.408;8.702;2024-01-07T12:20:57;6.43;;;5.77;;
6902;SDS011;20232;49.408;8.702;2024-01-07T12:23:24;5.97;;;5.00;;
6902;SDS011;20232;49.408;8.702;2024-01-07T12:25:50;6.57;;;5.17;;
6902;SDS011;20232;49.408;8.702;2024-01-07T12:28:16;6.27;;;5.10;;
6902;SDS011;20232;49.408;8.702;2024-01-07T12:30:42;5.47;;;4.87;;
6902;SDS011;20232;49.408;8.702;2024-01-07T12:33:07;6.40;;;5.50;;
6902;SDS011;20232;49.408;8.702;2024-01-07T12:35:33;6.27;;;5.27;;
6902;SDS011;20232;49.408;8.702;2024-01-07T12:37:59;5.63;;;5.03;;
6902;SDS011;20232;49.408;8.702;2024-01-07T12:40:25;6.90;;;5.23;;
6902;SDS011;20232;49.408;8.702;2024-01-07T12:42:52;6.23;;;5.00;;
6902;SDS011;20232;49.408;8.702;2024-01-07T12:45:17;5.70;;;5.17;;
6902;SDS011;20232;49.408;8.702;2024-01-07T12:47:43;6.93;;;5.53;;
6902;SDS011;20232;49.408;8.702;2024-01-07T12:50:09;6.50;;;5.30;;
6902;SDS011;20232;49.408;8.702;2024-01-07T12:52:38;6.10;;;5.50;;
6902;SDS011;20232;49.408;8.702;2024-01-07T12:55:04;5.60;;;5.10;;
6902;SDS011;20232;49.408;8.702;2024-01-07T12:57:31;6.93;;;5.50;;
6902;SDS011;20232;49.408;8.702;2024-01-07T12:59:56;6.10;;;5.47;;
6902;SDS011;20232;49.408;8.702;2024-01-07T13:02:22;6.63;;;5.93;;
6902;SDS011;20232;49.408;8.702;2024-01-07T13:04:47;6.17;;;5.50;;
6902;SDS011;20232;49.408;8.702;2024-01-07T13:07:12;6.30;;;5.70;;
6902;SDS011;20232;49.408;8.702;2024-01-07T13:09:38;7.10;;;6.07;;
6902;SDS011;20232;49.408;8.702;2024-01-07T13:12:04;6.47;;;5.50;;
6902;SDS011;20232;49.408;8.702;2024-01-07T13:14:29;7.33;;;6.37;;
6902;SDS011;20232;49.408;8.702;2024-01-07T13:16:55;7.50;;;6.03;;
6902;SDS011;20232;49.408;8.702;2024-01-07T13:19:20;7.93;;;6.10;;
6902;SDS011;20232;49.408;8.702;2024-01-07T13:21:46;8.67;;;6.47;;
6902;SDS011;20232;49.408;8.702;2024-01-07T13:24:11;7.53;;;5.93;;
6902;SDS011;20232;49.408;8.702;2024-01-07T13:26:37;7.67;;;6.00;;
6902;SDS011;20232;49.408;8.702;2024-01-07T13:29:02;6.97;;;5.87;;
6902;SDS011;20232;49.408;8.702;2024-01-07T13:31:28;8.13;;;6.80;;
6902;SDS011;20232;49.408;8.702;2024-01-07T13:33:54;7.97;;;6.00;;
6902;SDS011;20232;49.408;8.702;2024-01-07T13:36:19;8.23;;;6.10;;
6902;SDS011;20232;49.408;8.702;2024-01-07T13:38:45;7.47;;;5.87;;
6902;SDS011;20232;49.408;8.702;2024-01-07T13:41:14;7.00;;;6.27;;
6902;SDS011;20232;49.408;8.702;2024-01-07T13:43:41;7.33;;;6.10;;
6902;SDS011;20232;49.408;8.702;2024-01-07T13:46:06;8.50;;;7.10;;
6902;SDS011;20232;49.408;8.702;2024-01-07T13:48:31;9.13;;;6.83;;
6902;SDS011;20232;49.408;8.702;2024-01-07T13:50:57;7.37;;;6.07;;
6902;SDS011;20232;49.408;8.702;2024-01-07T13:53:23;11.73;;;7.13;;
6902;SDS011;20232;49.408;8.702;2024-01-07T13:55:48;7.63;;;6.67;;
6902;SDS011;20232;49.408;8.702;2024-01-07T13:58:14;9.20;;;6.90;;
6902;SDS011;20232;49.408;8.702;2024-01-07T14:00:40;9.17;;;6.63;;
6902;SDS011;20232;49.408;8.702;2024-01-07T14:03:06;9.57;;;7.33;;
6902;SDS011;20232;49.408;8.702;2024-01-07T14:05:32;9.47;;;6.93;;
6902;SDS011;20232;49.408;8.702;2024-01-07T14:07:57;8.80;;;7.10;;
6902;SDS011;20232;49.408;8.702;2024-01-07T14:10:22;8.67;;;6.23;;
6902;SDS011;20232;49.408;8.702;2024-01-07T14:12:48;6.87;;;6.10;;
6902;SDS011;20232;49.408;8.702;2024-01-07T14:15:13;8.30;;;6.87;;
6902;SDS011;20232;49.408;8.702;2024-01-07T14:17:39;8.73;;;6.70;;
6902;SDS011;20232;49.408;8.702;2024-01-07T14:20:08;8.03;;;6.30;;
6902;SDS011;20232;49.408;8.702;2024-01-07T14:22:35;9.07;;;6.90;;
6902;SDS011;20232;49.408;8.702;2024-01-07T14:25:00;9.80;;;7.07;;
6902;SDS011;20232;49.408;8.702;2024-01-07T14:27:26;7.87;;;6.70;;
6902;SDS011;20232;49.408;8.702;2024-01-07T14:29:52;8.93;;;6.77;;
6902;SDS011;20232;49.408;8.702;2024-01-07T14:32:17;8.83;;;6.63;;
6902;SDS011;20232;49.408;8.702;2024-01-07T14:34:43;7.97;;;5.93;;
6902;SDS011;20232;49.408;8.702;2024-01-07T14:37:11;8.67;;;6.60;;
6902;SDS011;20232;49.408;8.702;2024-01-07T14:39:36;8.97;;;6.50;;
6902;SDS011;20232;49.408;8.702;2024-01-07T14:42:02;10.63;;;6.37;;
6902;SDS011;20232;49.408;8.702;2024-01-07T14:44:28;7.87;;;6.20;;
6902;SDS011;20232;49.408;8.702;2024-01-07T14:46:54;10.43;;;6.80;;
6902;SDS011;20232;49.408;8.702;2024-01-07T14:49:19;9.57;;;6.47;;
6902;SDS011;20232;49.408;8.702;2024-01-07T14:51:45;8.60;;;6.60;;
6902;SDS011;20232;49.408;8.702;2024-01-07T14:54:11;8.90;;;6.03;;
6902;SDS011;20232;49.408;8.702;2024-01-07T14:56:37;8.70;;;6.83;;
6902;SDS011;20232;49.408;8.702;2024-01-07T14:59:02;8.83;;;6.47;;
6902;SDS011;20232;49.408;8.702;2024-01-07T15:01:28;10.30;;;6.97;;
6902;SDS011;20232;49.408;8.702;2024-01-07T15:03:54;9.67;;;6.80;;
6902;SDS011;20232;49.408;8.702;2024-01-07T15:06:19;8.87;;;6.50;;
6902;SDS011;20232;49.408;8.702;2024-01-07T15:08:44;9.43;;;6.77;;
6902;SDS011;20232;49.408;8.702;2024-01-07T15:11:12;8.83;;;7.00;;
6902;SDS011;20232;49.408;8.702;2024-01-07T15:13:38;9.07;;;6.10;;
6902;SDS011;20232;49.408;8.702;2024-01-07T15:16:04;9.47;;;6.80;;
6902;SDS011;20232;49.408;8.702;2024-01-07T15:18:31;10.30;;;6.37;;
6902;SDS011;20232;49.408;8.702;2024-01-07T15:20:56;7.17;;;5.77;;
6902;SDS011;20232;49.408;8.702;2024-01-07T15:23:22;7.83;;;6.03;;
6902;SDS011;20232;49.408;8.702;2024-01-07T15:25:47;7.83;;;6.10;;
6902;SDS011;20232;49.408;8.702;2024-01-07T15:28:13;9.27;;;6.13;;
6902;SDS011;20232;49.408;8.702;2024-01-07T15:30:38;9.70;;;6.20;;
6902;SDS011;20232;49.408;8.702;2024-01-07T15:33:04;7.33;;;5.90;;
6902;SDS011;20232;49.408;8.702;2024-01-07T15:35:29;10.10;;;7.23;;
6902;SDS011;20232;49.408;8.702;2024-01-07T15:37:55;12.27;;;6.87;;
6902;SDS011;20232;49.408;8.702;2024-01-07T15:40:22;10.13;;;6.60;;
6902;SDS011;20232;49.408;8.702;2024-01-07T15:42:47;7.10;;;5.80;;
6902;SDS011;20232;49.408;8.702;2024-01-07T15:45:13;9.63;;;6.23;;
6902;SDS011;20232;49.408;8.702;2024-01-07T15:47:38;8.17;;;6.00;;
6902;SDS011;20232;49.408;8.702;2024-01-07T15:50:04;9.30;;;6.13;;
6902;SDS011;20232;49.408;8.702;2024-01-07T15:52:30;8.13;;;6.27;;
6902;SDS011;20232;49.408;8.702;2024-01-07T15:54:57;8.67;;;6.03;;
6902;SDS011;20232;49.408;8.702;2024-01-07T15:57:23;9.17;;;6.53;;
6902;SDS011;20232;49.408;8.702;2024-01-07T15:59:48;10.23;;;5.90;;
6902;SDS011;20232;49.408;8.702;2024-01-07T16:02:14;10.47;;;6.33;;
6902;SDS011;20232;49.408;8.702;2024-01-07T16:04:39;8.00;;;5.80;;
6902;SDS011;20232;49.408;8.702;2024-01-07T16:07:05;11.57;;;6.70;;
6902;SDS011;20232;49.408;8.702;2024-01-07T16:09:30;10.37;;;6.07;;
6902;SDS011;20232;49.408;8.702;2024-01-07T16:11:59;8.93;;;6.07;;
6902;SDS011;20232;49.408;8.702;2024-01-07T16:14:25;9.10;;;6.37;;
6902;SDS011;20232;49.408;8.702;2024-01-07T16:16:53;9.13;;;6.00;;
6902;SDS011;20232;49.408;8.702;2024-01-07T16:19:19;8.57;;;5.83;;
6902;SDS011;20232;49.408;8.702;2024-01-07T16:21:44;7.83;;;5.43;;
6902;SDS011;20232;49.408;8.702;2024-01-07T16:24:09;7.93;;;5.77;;
6902;SDS011;20232;49.408;8.702;2024-01-07T16:26:35;9.80;;;6.50;;
6902;SDS011;20232;49.408;8.702;2024-01-07T16:29:00;7.97;;;6.03;;
6902;SDS011;20232;49.408;8.702;2024-01-07T16:31:26;9.13;;;5.80;;
6902;SDS011;20232;49.408;8.702;2024-01-07T16:33:51;8.33;;;6.27;;
6902;SDS011;20232;49.408;8.702;2024-01-07T16:36:17;9.43;;;6.20;;
6902;SDS011;20232;49.408;8.702;2024-01-07T16:38:42;9.87;;;6.57;;
6902;SDS011;20232;49.408;8.702;2024-01-07T16:41:07;6.83;;;5.50;;
6902;SDS011;20232;49.408;8.702;2024-01-07T16:43:34;6.90;;;5.33;;
6902;SDS011;20232;49.408;8.702;2024-01-07T16:46:01;8.70;;;6.20;;
6902;SDS011;20232;49.408;8.702;2024-01-07T16:48:27;7.47;;;5.63;;
6902;SDS011;20232;49.408;8.702;2024-01-07T16:50:52;8.90;;;5.60;;
6902;SDS011;20232;49.408;8.702;2024-01-07T16:53:19;7.83;;;5.30;;
6902;SDS011;20232;49.408;8.702;2024-01-07T16:55:45;13.10;;;6.90;;
6902;SDS011;20232;49.408;8.702;2024-01-07T16:58:11;10.50;;;5.63;;
6902;SDS011;20232;49.408;8.702;2024-01-07T17:00:37;7.63;;;5.87;;
6902;SDS011;20232;49.408;8.702;2024-01-07T17:03:02;7.43;;;5.33;;
6902;SDS011;20232;49.408;8.702;2024-01-07T17:05:28;7.43;;;5.53;;
6902;SDS011;20232;49.408;8.702;2024-01-07T17:07:53;7.97;;;5.27;;
6902;SDS011;20232;49.408;8.702;2024-01-07T17:10:19;6.17;;;4.63;;
6902;SDS011;20232;49.408;8.702;2024-01-07T17:12:44;5.17;;;4.50;;
6902;SDS011;20232;49.408;8.702;2024-01-07T17:15:10;8.07;;;5.40;;
6902;SDS011;20232;49.408;8.702;2024-01-07T17:17:38;8.63;;;5.90;;
6902;SDS011;20232;49.408;8.702;2024-01-07T17:20:04;7.93;;;5.50;;
6902;SDS011;20232;49.408;8.702;2024-01-07T17:22:33;5.00;;;4.50;;
6902;SDS011;20232;49.408;8.702;2024-01-07T17:24:59;5.03;;;4.53;;
6902;SDS011;20232;49.408;8.702;2024-01-07T17:27:24;7.13;;;4.93;;
6902;SDS011;20232;49.408;8.702;2024-01-07T17:29:49;5.13;;;4.63;;
6902;SDS011;20232;49.408;8.702;2024-01-07T17:32:15;6.83;;;4.87;;
6902;SDS011;20232;49.408;8.702;2024-01-07T17:34:42;6.93;;;4.27;;
6902;SDS011;20232;49.408;8.702;2024-01-07T17:37:07;7.27;;;4.87;;
6902;SDS011;20232;49.408;8.702;2024-01-07T17:39:33;5.90;;;4.50;;
6902;SDS011;20232;49.408;8.702;2024-01-07T17:41:58;5.87;;;4.40;;
6902;SDS011;20232;49.408;8.702;2024-01-07T17:44:24;5.57;;;4.67;;
6902;SDS011;20232;49.408;8.702;2024-01-07T17:46:50;6.17;;;4.90;;
6902;SDS011;20232;49.408;8.702;2024-01-07T17:49:16;7.07;;;4.47;;
6902;SDS011;20232;49.408;8.702;2024-01-07T17:51:41;6.07;;;4.27;;
6902;SDS011;20232;49.408;8.702;2024-01-07T17:54:09;4.87;;;4.17;;
6902;SDS011;20232;49.408;8.702;2024-01-07T17:56:37;5.07;;;4.00;;
6902;SDS011;20232;49.408;8.702;2024-01-07T17:59:02;4.23;;;3.83;;
6902;SDS011;20232;49.408;8.702;2024-01-07T18:01:27;6.33;;;4.23;;
6902;SDS011;20232;49.408;8.702;2024-01-07T18:03:53;5.23;;;4.07;;
6902;SDS011;20232;49.408;8.702;2024-01-07T18:06:18;4.30;;;3.90;;
6902;SDS011;20232;49.408;8.702;2024-01-07T18:08:44;4.73;;;4.30;;
6902;SDS011;20232;49.408;8.702;2024-01-07T18:11:09;4.50;;;3.70;;
6902;SDS011;20232;49.408;8.702;2024-01-07T18:13:34;4.37;;;3.97;;
6902;SDS011;20232;49.408;8.702;2024-01-07T18:16:00;3.77;;;3.10;;
6902;SDS011;20232;49.408;8.702;2024-01-07T18:18:26;4.10;;;3.70;;
6902;SDS011;20232;49.408;8.702;2024-01-07T18:20:52;3.80;;;3.50;;
6902;SDS011;20232;49.408;8.702;2024-01-07T18:23:17;3.80;;;3.43;;
6902;SDS011;20232;49.408;8.702;2024-01-07T18:25:43;4.60;;;3.47;;
6902;SDS011;20232;49.408;8.702;2024-01-07T18:28:08;4.10;;;3.40;;
6902;SDS011;20232;49.408;8.702;2024-01-07T18:30:35;4.60;;;3.80;;
6902;SDS011;20232;49.408;8.702;2024-01-07T18:33:00;4.10;;;3.80;;
6902;SDS011;20232;49.408;8.702;2024-01-07T18:35:26;3.57;;;3.27;;
6902;SDS011;20232;49.408;8.702;2024-01-07T18:37:51;3.60;;;3.30;;
6902;SDS011;20232;49.408;8.702;2024-01-07T18:40:17;4.87;;;3.60;;
6902;SDS011;20232;49.408;8.702;2024-01-07T18:42:45;3.90;;;3.50;;
6902;SDS011;20232;49.408;8.702;2024-01-07T18:45:10;3.80;;;3.40;;
6902;SDS011;20232;49.408;8.702;2024-01-07T18:47:37;4.87;;;3.80;;
6902;SDS011;20232;49.408;8.702;2024-01-07T18:50:03;5.43;;;3.83;;
6902;SDS011;20232;49.408;8.702;2024-01-07T18:52:30;3.77;;;3.50;;
6902;SDS011;20232;49.408;8.702;2024-01-07T18:54:55;5.93;;;3.83;;
6902;SDS011;20232;49.408;8.702;2024-01-07T18:57:21;5.40;;;3.60;;
6902;SDS011;20232;49.408;8.702;2024-01-07T18:59:46;3.27;;;3.07;;
6902;SDS011;20232;49.408;8.702;2024-01-07T19:02:11;4.17;;;3.73;;
6902;SDS011;20232;49.408;8.702;2024-01-07T19:04:38;3.87;;;3.43;;
6902;SDS011;20232;49.408;8.702;2024-01-07T19:07:04;4.20;;;3.53;;
6902;SDS011;20232;49.408;8.702;2024-01-07T19:09:30;5.37;;;3.60;;
6902;SDS011;20232;49.408;8.702;2024-01-07T19:11:55;4.40;;;3.43;;
6902;SDS011;20232;49.408;8.702;2024-01-07T19:14:20;3.80;;;3.50;;
6902;SDS011;20232;49.408;8.702;2024-01-07T19:16:46;3.80;;;3.50;;
6902;SDS011;20232;49.408;8.702;2024-01-07T19:19:11;4.57;;;3.50;;
6902;SDS011;20232;49.408;8.702;2024-01-07T19:21:37;3.70;;;3.33;;
6902;SDS011;20232;49.408;8.702;2024-01-07T19:24:03;3.00;;;2.80;;
6902;SDS011;20232;49.408;8.702;2024-01-07T19:26:29;3.73;;;3.43;;
6902;SDS011;20232;49.408;8.702;2024-01-07T19:28:55;3.33;;;3.13;;
6902;SDS011;20232;49.408;8.702;2024-01-07T19:31:25;3.30;;;3.00;;
6902;SDS011;20232;49.408;8.702;2024-01-07T19:33:52;3.53;;;3.17;;
6902;SDS011;20232;49.408;8.702;2024-01-07T19:36:19;3.70;;;3.30;;
6902;SDS011;20232;49.408;8.702;2024-01-07T19:38:44;3.53;;;3.30;;
6902;SDS011;20232;49.408;8.702;2024-01-07T19:41:19;3.50;;;3.20;;
6902;SDS011;20232;49.408;8.702;2024-01-07T19:43:45;3.93;;;3.30;;
6902;SDS011;20232;49.408;8.702;2024-01-07T19:46:10;3.50;;;3.20;;
6902;SDS011;20232;49.408;8.702;2024-01-07T19:48:36;3.20;;;2.90;;
6902;SDS011;20232;49.408;8.702;2024-01-07T19:51:01;3.80;;;3.13;;
6902;SDS011;20232;49.408;8.702;2024-01-07T19:53:26;4.33;;;3.30;;
6902;SDS011;20232;49.408;8.702;2024-01-07T19:55:52;4.67;;;3.67;;
6902;SDS011;20232;49.408;8.702;2024-01-07T19:58:18;4.10;;;3.70;;
6902;SDS011;20232;49.408;8.702;2024-01-07T20:00:44;3.73;;;3.33;;